Hurlburt Field, FL (32544)

12:12 PM CST on February 20, 2017 (GMT -0600)
mary esther | | Change Station

Elev 20 ft 30.41 °N, 86.68 °W | Updated 30 seconds ago

Clear
Clear
75.5 °F
Feels Like 77 °F
N
1.0
Wind Variable Wind from South

Today
High -- | Low -- °F
--% Chance of Precip.
Yesterday
High -- | Low -- °F
Precip. -- in
Pressure 30.12 in
Visibility 10.0 miles
Clouds Clear
Heat Index 77 °F
Dew Point 64 °F
Humidity 68%
Rainfall 0.00 in
Snow Depth Not available.
6:22 AM 5:39 PM
Waning Crescent, 32% visible
METAR KHRT 201758Z AUTO 17009KT 10SM CLR 22/10 A3011 RMK AO2 RAB18E30RAB54 SLP198 P0000 60000 T02230101 10228 20112 50005 $
Pressure 30.12 in
Visibility 10.0 miles
Clouds Clear
Heat Index 77 °F
Dew Point 64 °F
Humidity 68%
Rainfall 0.00 in
Snow Depth Not available.
6:22 AM 5:39 PM
Waning Crescent, 32% visible
METAR KHRT 201758Z AUTO 17009KT 10SM CLR 22/10 A3011 RMK AO2 RAB18E30RAB54 SLP198 P0000 60000 T02230101 10228 20112 50005 $

Get Your Daily Forecast Email!

Thanks for signing up!

Be on the lookout for a verification email in your inbox.

You'll start receiving the daily forecast at 8 AM.

×

10-Day Weather Forecast

Almanac

Astronomy

Feb. 20, 2017 Rise Set
Actual Time
Civil Twilight
Nautical Twilight
Astronomical Twilight
Moon
Length of Visible Light
Length of Day
Tomorrow will be .
, % of the Moon is Illuminated

Today's Extremes

State Highs State Lows

Community

WunderPhotos

Upload Photos

1,962,540 photos uploaded!

WunderBlog® & News

Nearby

Air Quality

  Air Quality AQ Index Pollutant
Not available.

Snow Depth

Station Depth Elevation

Earthquake Activity

City Distance Mag. Time & Date
Minimum magnitude displayed is 2.5.

Coastal Water Temperatures

Place Temperature

Stations

Nearby Weather Stations

Station Location Temp. Windchill Dew Point Humidity Wind Precip. Elev Updated Type
                   

Watches & Warnings

There are currently no watches in effect.